KRDR/RDR METAR and TAF weather

Enter ICAO airport designator
Station Type Date Time Source
KRDR METAR 2023/01/30 11:55 UTC NOAA

KRDR 301155Z AUTO 27007KT 10SM CLR M28/M33 A3033 RMK AO2 SLP311 T12811326 11259 21298 57010 $


Station Type Date Time Source
KRDR Decoded METAR 2023/01/30 11:55 UTC NOAA

Grand Forks Air Force Base, ND, United States (KRDR) 47-58N 097-24W 278M
Jan 30, 2023 - 06:55 AM EST / 2023.01.30 1155 UTC
Wind: from the W (270 degrees) at 8 MPH (7 KT):0
Visibility: 10 mile(s):0
Sky conditions: clear
Temperature: -18.6 F (-28.1 C)
Windchill: -36 F (-38 C):2
Dew Point: -26.7 F (-32.6 C)
Relative Humidity: 65%
Pressure (altimeter): 30.33 in. Hg (1027 hPa)
Pressure tendency: 0.03 inches (1.0 hPa) lower than three hours ago
ob: KRDR 301155Z AUTO 27007KT 10SM CLR M28/M33 A3033 RMK AO2 SLP311 T12811326 11259 21298 57010
cycle: 12

Station Type Date Time Source
KRDR TAF 2023/01/30 10:59 UTC NOAA

TAF KRDR 300955Z 3010/3116 28009KT 9999 SCT180 QNH3032INS
BECMG 3013/3014 24012KT 9999 FEW220 QNH3028INS
BECMG 3101/3102 20009KT 9999 SCT180 QNH3030INS
BECMG 3114/3115 22009KT 9999 SCT140 QNH3026INS TXM02/3021Z TNM16/3012Z

Example: see airport list